sensor_id;sensor_type;location;lat;lon;timestamp;temperature;humidity
51811;DHT22;52468;40.116;18.296;2024-01-06T00:00:46;16.90;79.00
51811;DHT22;52468;40.116;18.296;2024-01-06T00:03:16;16.90;79.00
51811;DHT22;52468;40.116;18.296;2024-01-06T00:05:44;16.90;79.00
51811;DHT22;52468;40.116;18.296;2024-01-06T00:08:12;17.00;79.10
51811;DHT22;52468;40.116;18.296;2024-01-06T00:10:40;17.00;79.10
51811;DHT22;52468;40.116;18.296;2024-01-06T00:13:08;17.00;78.80
51811;DHT22;52468;40.116;18.296;2024-01-06T00:15:36;17.00;78.80
51811;DHT22;52468;40.116;18.296;2024-01-06T00:18:04;16.90;79.00
51811;DHT22;52468;40.116;18.296;2024-01-06T00:20:32;17.00;79.00
51811;DHT22;52468;40.116;18.296;2024-01-06T00:23:00;17.00;79.00
51811;DHT22;52468;40.116;18.296;2024-01-06T00:25:27;17.00;79.00
51811;DHT22;52468;40.116;18.296;2024-01-06T00:27:55;16.90;79.10
51811;DHT22;52468;40.116;18.296;2024-01-06T00:30:23;16.90;79.50
51811;DHT22;52468;40.116;18.296;2024-01-06T00:32:51;16.90;79.30
51811;DHT22;52468;40.116;18.296;2024-01-06T00:35:19;16.90;79.40
51811;DHT22;52468;40.116;18.296;2024-01-06T00:37:47;16.90;79.40
51811;DHT22;52468;40.116;18.296;2024-01-06T00:40:15;16.90;79.40
51811;DHT22;52468;40.116;18.296;2024-01-06T00:42:43;16.90;79.40
51811;DHT22;52468;40.116;18.296;2024-01-06T00:45:10;16.80;79.50
51811;DHT22;52468;40.116;18.296;2024-01-06T00:47:38;16.90;79.30
51811;DHT22;52468;40.116;18.296;2024-01-06T00:50:06;16.80;79.40
51811;DHT22;52468;40.116;18.296;2024-01-06T00:52:34;16.80;79.50
51811;DHT22;52468;40.116;18.296;2024-01-06T00:55:02;16.80;79.50
51811;DHT22;52468;40.116;18.296;2024-01-06T00:57:30;16.90;79.40
51811;DHT22;52468;40.116;18.296;2024-01-06T00:59:58;16.80;79.50
51811;DHT22;52468;40.116;18.296;2024-01-06T01:02:26;16.80;79.40
51811;DHT22;52468;40.116;18.296;2024-01-06T01:04:53;16.80;79.60
51811;DHT22;52468;40.116;18.296;2024-01-06T01:07:21;16.90;79.50
51811;DHT22;52468;40.116;18.296;2024-01-06T01:09:49;16.90;79.40
51811;DHT22;52468;40.116;18.296;2024-01-06T01:12:17;16.90;79.20
51811;DHT22;52468;40.116;18.296;2024-01-06T01:14:45;16.80;79.40
51811;DHT22;52468;40.116;18.296;2024-01-06T01:17:13;16.70;79.40
51811;DHT22;52468;40.116;18.296;2024-01-06T01:19:41;16.80;79.20
51811;DHT22;52468;40.116;18.296;2024-01-06T01:22:09;16.80;79.10
51811;DHT22;52468;40.116;18.296;2024-01-06T01:24:37;16.80;79.10
51811;DHT22;52468;40.116;18.296;2024-01-06T01:27:05;16.80;79.20
51811;DHT22;52468;40.116;18.296;2024-01-06T01:29:33;16.80;79.10
51811;DHT22;52468;40.116;18.296;2024-01-06T01:32:01;16.80;78.90
51811;DHT22;52468;40.116;18.296;2024-01-06T01:34:29;16.70;79.20
51811;DHT22;52468;40.116;18.296;2024-01-06T01:36:56;16.80;79.10
51811;DHT22;52468;40.116;18.296;2024-01-06T01:39:24;16.70;79.20
51811;DHT22;52468;40.116;18.296;2024-01-06T01:41:52;16.70;79.20
51811;DHT22;52468;40.116;18.296;2024-01-06T01:44:20;16.70;79.20
51811;DHT22;52468;40.116;18.296;2024-01-06T01:46:48;16.70;79.00
51811;DHT22;52468;40.116;18.296;2024-01-06T01:49:16;16.80;79.10
51811;DHT22;52468;40.116;18.296;2024-01-06T01:51:44;16.70;79.10
51811;DHT22;52468;40.116;18.296;2024-01-06T01:54:12;16.70;79.00
51811;DHT22;52468;40.116;18.296;2024-01-06T01:56:42;16.70;78.90
51811;DHT22;52468;40.116;18.296;2024-01-06T01:59:12;16.60;79.20
51811;DHT22;52468;40.116;18.296;2024-01-06T02:01:40;16.60;79.20
51811;DHT22;52468;40.116;18.296;2024-01-06T02:04:09;16.50;79.50
51811;DHT22;52468;40.116;18.296;2024-01-06T02:06:37;16.50;79.60
51811;DHT22;52468;40.116;18.296;2024-01-06T02:09:05;16.50;79.60
51811;DHT22;52468;40.116;18.296;2024-01-06T02:11:33;16.50;79.60
51811;DHT22;52468;40.116;18.296;2024-01-06T02:14:01;16.50;79.70
51811;DHT22;52468;40.116;18.296;2024-01-06T02:16:28;16.50;79.60
51811;DHT22;52468;40.116;18.296;2024-01-06T02:18:56;16.40;79.80
51811;DHT22;52468;40.116;18.296;2024-01-06T02:21:27;16.30;79.90
51811;DHT22;52468;40.116;18.296;2024-01-06T02:23:56;16.40;79.80
51811;DHT22;52468;40.116;18.296;2024-01-06T02:26:23;16.30;79.90
51811;DHT22;52468;40.116;18.296;2024-01-06T02:28:51;16.40;79.80
51811;DHT22;52468;40.116;18.296;2024-01-06T02:31:19;16.40;79.90
51811;DHT22;52468;40.116;18.296;2024-01-06T02:33:47;16.30;80.10
51811;DHT22;52468;40.116;18.296;2024-01-06T02:36:15;16.30;80.10
51811;DHT22;52468;40.116;18.296;2024-01-06T02:38:43;16.40;79.90
51811;DHT22;52468;40.116;18.296;2024-01-06T02:41:11;16.40;79.80
51811;DHT22;52468;40.116;18.296;2024-01-06T02:43:39;16.30;79.70
51811;DHT22;52468;40.116;18.296;2024-01-06T02:46:07;16.30;79.70
51811;DHT22;52468;40.116;18.296;2024-01-06T02:48:35;16.30;79.80
51811;DHT22;52468;40.116;18.296;2024-01-06T02:51:03;16.50;79.60
51811;DHT22;52468;40.116;18.296;2024-01-06T02:53:31;16.40;79.70
51811;DHT22;52468;40.116;18.296;2024-01-06T02:55:58;16.40;79.70
51811;DHT22;52468;40.116;18.296;2024-01-06T02:58:26;16.40;79.70
51811;DHT22;52468;40.116;18.296;2024-01-06T03:00:54;16.40;79.70
51811;DHT22;52468;40.116;18.296;2024-01-06T03:03:22;16.40;79.70
51811;DHT22;52468;40.116;18.296;2024-01-06T03:05:50;16.40;80.20
51811;DHT22;52468;40.116;18.296;2024-01-06T03:08:18;16.50;80.10
51811;DHT22;52468;40.116;18.296;2024-01-06T03:10:45;16.60;79.90
51811;DHT22;52468;40.116;18.296;2024-01-06T03:13:13;16.70;79.60
51811;DHT22;52468;40.116;18.296;2024-01-06T03:15:41;16.80;79.30
51811;DHT22;52468;40.116;18.296;2024-01-06T03:18:09;16.80;79.10
51811;DHT22;52468;40.116;18.296;2024-01-06T03:20:37;16.70;79.10
51811;DHT22;52468;40.116;18.296;2024-01-06T03:23:05;16.70;79.30
51811;DHT22;52468;40.116;18.296;2024-01-06T03:25:33;16.70;79.20
51811;DHT22;52468;40.116;18.296;2024-01-06T03:28:01;16.70;79.70
51811;DHT22;52468;40.116;18.296;2024-01-06T03:30:29;16.80;79.40
51811;DHT22;52468;40.116;18.296;2024-01-06T03:32:56;16.60;79.60
51811;DHT22;52468;40.116;18.296;2024-01-06T03:35:24;16.70;79.40
51811;DHT22;52468;40.116;18.296;2024-01-06T03:37:52;16.80;79.70
51811;DHT22;52468;40.116;18.296;2024-01-06T03:40:20;16.70;80.10
51811;DHT22;52468;40.116;18.296;2024-01-06T03:42:48;16.80;79.90
51811;DHT22;52468;40.116;18.296;2024-01-06T03:45:16;16.80;80.00
51811;DHT22;52468;40.116;18.296;2024-01-06T03:47:44;16.80;80.30
51811;DHT22;52468;40.116;18.296;2024-01-06T03:50:12;16.90;80.40
51811;DHT22;52468;40.116;18.296;2024-01-06T03:52:40;16.90;80.50
51811;DHT22;52468;40.116;18.296;2024-01-06T03:55:08;17.00;80.50
51811;DHT22;52468;40.116;18.296;2024-01-06T03:57:36;17.00;80.50
51811;DHT22;52468;40.116;18.296;2024-01-06T04:00:05;17.10;80.10
51811;DHT22;52468;40.116;18.296;2024-01-06T04:02:33;17.00;80.00
51811;DHT22;52468;40.116;18.296;2024-01-06T04:05:00;17.00;79.80
51811;DHT22;52468;40.116;18.296;2024-01-06T04:07:28;17.00;79.90
51811;DHT22;52468;40.116;18.296;2024-01-06T04:09:56;17.00;80.20
51811;DHT22;52468;40.116;18.296;2024-01-06T04:12:25;17.00;80.00
51811;DHT22;52468;40.116;18.296;2024-01-06T04:14:53;17.00;80.40
51811;DHT22;52468;40.116;18.296;2024-01-06T04:17:20;17.00;80.50
51811;DHT22;52468;40.116;18.296;2024-01-06T04:19:49;17.10;80.20
51811;DHT22;52468;40.116;18.296;2024-01-06T04:22:17;17.10;80.20
51811;DHT22;52468;40.116;18.296;2024-01-06T04:24:45;17.10;80.00
51811;DHT22;52468;40.116;18.296;2024-01-06T04:27:13;17.20;80.10
51811;DHT22;52468;40.116;18.296;2024-01-06T04:29:41;17.30;79.80
51811;DHT22;52468;40.116;18.296;2024-01-06T04:32:08;17.20;79.80
51811;DHT22;52468;40.116;18.296;2024-01-06T04:34:36;17.20;79.90
51811;DHT22;52468;40.116;18.296;2024-01-06T04:37:04;17.20;79.90
51811;DHT22;52468;40.116;18.296;2024-01-06T04:39:32;17.20;80.10
51811;DHT22;52468;40.116;18.296;2024-01-06T04:42:01;17.30;79.80
51811;DHT22;52468;40.116;18.296;2024-01-06T04:44:29;17.30;79.70
51811;DHT22;52468;40.116;18.296;2024-01-06T04:46:57;17.30;79.70
51811;DHT22;52468;40.116;18.296;2024-01-06T04:49:24;17.30;79.80
51811;DHT22;52468;40.116;18.296;2024-01-06T04:51:52;17.30;79.90
51811;DHT22;52468;40.116;18.296;2024-01-06T04:54:20;17.20;79.90
51811;DHT22;52468;40.116;18.296;2024-01-06T04:56:48;17.20;79.80
51811;DHT22;52468;40.116;18.296;2024-01-06T04:59:16;17.20;79.70
51811;DHT22;52468;40.116;18.296;2024-01-06T05:01:44;17.20;79.80
51811;DHT22;52468;40.116;18.296;2024-01-06T05:04:12;17.10;79.80
51811;DHT22;52468;40.116;18.296;2024-01-06T05:06:40;17.10;79.90
51811;DHT22;52468;40.116;18.296;2024-01-06T05:09:08;17.10;79.80
51811;DHT22;52468;40.116;18.296;2024-01-06T05:11:36;17.00;80.20
51811;DHT22;52468;40.116;18.296;2024-01-06T05:14:03;17.10;80.20
51811;DHT22;52468;40.116;18.296;2024-01-06T05:16:31;17.10;80.30
51811;DHT22;52468;40.116;18.296;2024-01-06T05:18:59;17.10;80.30
51811;DHT22;52468;40.116;18.296;2024-01-06T05:21:27;17.10;80.10
51811;DHT22;52468;40.116;18.296;2024-01-06T05:23:55;17.10;80.00
51811;DHT22;52468;40.116;18.296;2024-01-06T05:26:23;17.10;79.90
51811;DHT22;52468;40.116;18.296;2024-01-06T05:28:52;17.20;79.70
51811;DHT22;52468;40.116;18.296;2024-01-06T05:31:20;17.10;79.80
51811;DHT22;52468;40.116;18.296;2024-01-06T05:33:48;17.20;79.80
51811;DHT22;52468;40.116;18.296;2024-01-06T05:36:19;17.30;79.80
51811;DHT22;52468;40.116;18.296;2024-01-06T05:38:47;17.30;79.70
51811;DHT22;52468;40.116;18.296;2024-01-06T05:41:17;17.30;79.80
51811;DHT22;52468;40.116;18.296;2024-01-06T05:43:44;17.30;79.60
51811;DHT22;52468;40.116;18.296;2024-01-06T05:46:23;17.40;79.60
51811;DHT22;52468;40.116;18.296;2024-01-06T05:48:51;17.40;79.40
51811;DHT22;52468;40.116;18.296;2024-01-06T05:51:19;17.30;79.50
51811;DHT22;52468;40.116;18.296;2024-01-06T05:53:47;17.30;79.30
51811;DHT22;52468;40.116;18.296;2024-01-06T05:56:25;17.30;79.30
51811;DHT22;52468;40.116;18.296;2024-01-06T05:58:55;17.20;79.40
51811;DHT22;52468;40.116;18.296;2024-01-06T06:01:23;17.20;79.50
51811;DHT22;52468;40.116;18.296;2024-01-06T06:03:51;17.10;79.50
51811;DHT22;52468;40.116;18.296;2024-01-06T06:06:19;17.20;79.40
51811;DHT22;52468;40.116;18.296;2024-01-06T06:08:47;17.20;79.60
51811;DHT22;52468;40.116;18.296;2024-01-06T06:11:16;17.30;80.00
51811;DHT22;52468;40.116;18.296;2024-01-06T06:13:44;17.30;79.70
51811;DHT22;52468;40.116;18.296;2024-01-06T06:16:12;17.30;79.80
51811;DHT22;52468;40.116;18.296;2024-01-06T06:18:40;17.30;80.10
51811;DHT22;52468;40.116;18.296;2024-01-06T06:21:08;17.30;80.00
51811;DHT22;52468;40.116;18.296;2024-01-06T06:23:36;17.40;79.80
51811;DHT22;52468;40.116;18.296;2024-01-06T06:26:07;17.50;79.80
51811;DHT22;52468;40.116;18.296;2024-01-06T06:28:35;17.50;79.70
51811;DHT22;52468;40.116;18.296;2024-01-06T06:31:03;17.50;79.80
51811;DHT22;52468;40.116;18.296;2024-01-06T06:33:31;17.50;79.60
51811;DHT22;52468;40.116;18.296;2024-01-06T06:36:01;17.50;79.40
51811;DHT22;52468;40.116;18.296;2024-01-06T06:38:32;17.40;79.50
51811;DHT22;52468;40.116;18.296;2024-01-06T06:40:59;17.40;79.60
51811;DHT22;52468;40.116;18.296;2024-01-06T06:43:27;17.40;80.00
51811;DHT22;52468;40.116;18.296;2024-01-06T06:45:55;17.40;80.00
51811;DHT22;52468;40.116;18.296;2024-01-06T06:48:23;17.50;79.80
51811;DHT22;52468;40.116;18.296;2024-01-06T06:50:51;17.50;80.00
51811;DHT22;52468;40.116;18.296;2024-01-06T06:53:19;17.50;79.70
51811;DHT22;52468;40.116;18.296;2024-01-06T06:55:46;17.50;79.90
51811;DHT22;52468;40.116;18.296;2024-01-06T06:58:14;17.60;79.90
51811;DHT22;52468;40.116;18.296;2024-01-06T07:00:42;17.60;79.70
51811;DHT22;52468;40.116;18.296;2024-01-06T07:03:10;17.60;79.80
51811;DHT22;52468;40.116;18.296;2024-01-06T07:05:38;17.60;79.50
51811;DHT22;52468;40.116;18.296;2024-01-06T07:08:06;17.50;79.90
51811;DHT22;52468;40.116;18.296;2024-01-06T07:10:34;17.60;79.70
51811;DHT22;52468;40.116;18.296;2024-01-06T07:13:02;17.60;79.60
51811;DHT22;52468;40.116;18.296;2024-01-06T07:15:30;17.60;79.70
51811;DHT22;52468;40.116;18.296;2024-01-06T07:17:58;17.60;79.80
51811;DHT22;52468;40.116;18.296;2024-01-06T07:20:26;17.80;79.60
51811;DHT22;52468;40.116;18.296;2024-01-06T07:22:54;17.70;79.70
51811;DHT22;52468;40.116;18.296;2024-01-06T07:25:22;17.80;79.70
51811;DHT22;52468;40.116;18.296;2024-01-06T07:27:50;17.80;79.70
51811;DHT22;52468;40.116;18.296;2024-01-06T07:30:18;17.80;79.70
51811;DHT22;52468;40.116;18.296;2024-01-06T07:32:48;17.80;79.70
51811;DHT22;52468;40.116;18.296;2024-01-06T07:35:18;17.70;79.90
51811;DHT22;52468;40.116;18.296;2024-01-06T07:37:46;17.80;79.90
51811;DHT22;52468;40.116;18.296;2024-01-06T07:40:14;17.80;79.50
51811;DHT22;52468;40.116;18.296;2024-01-06T07:42:44;17.90;79.50
51811;DHT22;52468;40.116;18.296;2024-01-06T07:45:12;17.90;79.40
51811;DHT22;52468;40.116;18.296;2024-01-06T07:47:41;18.00;79.50
51811;DHT22;52468;40.116;18.296;2024-01-06T07:50:09;18.00;79.00
51811;DHT22;52468;40.116;18.296;2024-01-06T07:52:37;18.00;79.10
51811;DHT22;52468;40.116;18.296;2024-01-06T07:55:05;18.10;78.70
51811;DHT22;52468;40.116;18.296;2024-01-06T07:57:33;18.00;78.70
51811;DHT22;52468;40.116;18.296;2024-01-06T08:00:01;18.10;78.60
51811;DHT22;52468;40.116;18.296;2024-01-06T08:02:38;18.10;78.60
51811;DHT22;52468;40.116;18.296;2024-01-06T08:05:06;18.20;78.70
51811;DHT22;52468;40.116;18.296;2024-01-06T08:07:35;18.10;78.70
51811;DHT22;52468;40.116;18.296;2024-01-06T08:10:03;18.10;78.70
51811;DHT22;52468;40.116;18.296;2024-01-06T08:12:34;18.20;78.60
51811;DHT22;52468;40.116;18.296;2024-01-06T08:15:02;18.30;78.70
51811;DHT22;52468;40.116;18.296;2024-01-06T08:17:31;18.40;78.20
51811;DHT22;52468;40.116;18.296;2024-01-06T08:19:58;18.50;78.10
51811;DHT22;52468;40.116;18.296;2024-01-06T08:22:27;18.50;77.80
51811;DHT22;52468;40.116;18.296;2024-01-06T08:24:55;18.70;77.60
51811;DHT22;52468;40.116;18.296;2024-01-06T08:27:23;18.80;77.30
51811;DHT22;52468;40.116;18.296;2024-01-06T08:29:51;19.00;76.60
51811;DHT22;52468;40.116;18.296;2024-01-06T08:32:19;19.10;76.00
51811;DHT22;52468;40.116;18.296;2024-01-06T08:34:47;19.10;75.50
51811;DHT22;52468;40.116;18.296;2024-01-06T08:37:15;19.00;75.20
51811;DHT22;52468;40.116;18.296;2024-01-06T08:39:43;19.00;75.50
51811;DHT22;52468;40.116;18.296;2024-01-06T08:42:11;19.00;75.60
51811;DHT22;52468;40.116;18.296;2024-01-06T08:44:39;19.00;75.80
51811;DHT22;52468;40.116;18.296;2024-01-06T08:47:06;19.10;75.40
51811;DHT22;52468;40.116;18.296;2024-01-06T08:49:34;19.30;75.00
51811;DHT22;52468;40.116;18.296;2024-01-06T08:52:02;19.40;74.30
51811;DHT22;52468;40.116;18.296;2024-01-06T08:54:31;19.50;73.90
51811;DHT22;52468;40.116;18.296;2024-01-06T08:56:59;19.50;74.00
51811;DHT22;52468;40.116;18.296;2024-01-06T08:59:27;19.50;74.00
51811;DHT22;52468;40.116;18.296;2024-01-06T09:01:55;19.60;74.50
51811;DHT22;52468;40.116;18.296;2024-01-06T09:04:24;19.90;73.80
51811;DHT22;52468;40.116;18.296;2024-01-06T09:06:52;20.10;72.90
51811;DHT22;52468;40.116;18.296;2024-01-06T09:09:20;20.30;72.20
51811;DHT22;52468;40.116;18.296;2024-01-06T09:11:48;20.60;70.80
51811;DHT22;52468;40.116;18.296;2024-01-06T09:14:18;20.70;69.90
51811;DHT22;52468;40.116;18.296;2024-01-06T09:16:46;20.50;69.80
51811;DHT22;52468;40.116;18.296;2024-01-06T09:19:14;20.30;70.70
51811;DHT22;52468;40.116;18.296;2024-01-06T09:21:42;20.20;70.70
51811;DHT22;52468;40.116;18.296;2024-01-06T09:24:10;20.10;71.10
51811;DHT22;52468;40.116;18.296;2024-01-06T09:26:38;20.10;71.30
51811;DHT22;52468;40.116;18.296;2024-01-06T09:29:06;20.00;72.00
51811;DHT22;52468;40.116;18.296;2024-01-06T09:31:34;20.00;72.50
51811;DHT22;52468;40.116;18.296;2024-01-06T09:34:02;20.10;72.10
51811;DHT22;52468;40.116;18.296;2024-01-06T09:36:31;20.20;71.60
51811;DHT22;52468;40.116;18.296;2024-01-06T09:38:59;20.10;71.70
51811;DHT22;52468;40.116;18.296;2024-01-06T09:41:27;20.10;71.60
51811;DHT22;52468;40.116;18.296;2024-01-06T09:43:55;20.10;71.50
51811;DHT22;52468;40.116;18.296;2024-01-06T09:46:25;20.00;71.50
51811;DHT22;52468;40.116;18.296;2024-01-06T09:49:00;19.90;72.00
51811;DHT22;52468;40.116;18.296;2024-01-06T09:51:29;19.90;72.70
51811;DHT22;52468;40.116;18.296;2024-01-06T09:54:01;19.90;72.80
51811;DHT22;52468;40.116;18.296;2024-01-06T09:56:29;19.80;72.70
51811;DHT22;52468;40.116;18.296;2024-01-06T09:58:57;20.10;72.20
51811;DHT22;52468;40.116;18.296;2024-01-06T10:01:26;20.20;71.80
51811;DHT22;52468;40.116;18.296;2024-01-06T10:03:53;20.10;71.80
51811;DHT22;52468;40.116;18.296;2024-01-06T10:06:21;20.10;71.90
51811;DHT22;52468;40.116;18.296;2024-01-06T10:08:53;20.10;72.00
51811;DHT22;52468;40.116;18.296;2024-01-06T10:11:24;20.20;71.50
51811;DHT22;52468;40.116;18.296;2024-01-06T10:13:52;20.10;71.50
51811;DHT22;52468;40.116;18.296;2024-01-06T10:16:21;19.90;71.00
51811;DHT22;52468;40.116;18.296;2024-01-06T10:18:50;19.80;71.90
51811;DHT22;52468;40.116;18.296;2024-01-06T10:21:24;19.90;72.10
51811;DHT22;52468;40.116;18.296;2024-01-06T10:23:54;19.80;72.40
51811;DHT22;52468;40.116;18.296;2024-01-06T10:26:22;19.80;72.60
51811;DHT22;52468;40.116;18.296;2024-01-06T10:28:50;19.70;72.50
51811;DHT22;52468;40.116;18.296;2024-01-06T10:31:18;19.60;72.50
51811;DHT22;52468;40.116;18.296;2024-01-06T10:33:46;19.60;72.60
51811;DHT22;52468;40.116;18.296;2024-01-06T10:36:16;19.60;73.00
51811;DHT22;52468;40.116;18.296;2024-01-06T10:38:44;19.60;72.90
51811;DHT22;52468;40.116;18.296;2024-01-06T10:41:14;19.70;72.90
51811;DHT22;52468;40.116;18.296;2024-01-06T10:43:43;19.80;72.60
51811;DHT22;52468;40.116;18.296;2024-01-06T10:46:12;19.70;72.70
51811;DHT22;52468;40.116;18.296;2024-01-06T10:48:42;19.80;73.40
51811;DHT22;52468;40.116;18.296;2024-01-06T10:51:12;20.00;72.60
51811;DHT22;52468;40.116;18.296;2024-01-06T10:53:41;19.80;72.10
51811;DHT22;52468;40.116;18.296;2024-01-06T10:56:10;19.60;72.60
51811;DHT22;52468;40.116;18.296;2024-01-06T10:58:45;19.40;73.30
51811;DHT22;52468;40.116;18.296;2024-01-06T11:01:19;19.20;74.30
51811;DHT22;52468;40.116;18.296;2024-01-06T11:03:48;19.30;74.00
51811;DHT22;52468;40.116;18.296;2024-01-06T11:06:18;19.30;73.60
51811;DHT22;52468;40.116;18.296;2024-01-06T11:11:29;19.30;74.10
51811;DHT22;52468;40.116;18.296;2024-01-06T11:14:17;19.30;74.10
51811;DHT22;52468;40.116;18.296;2024-01-06T11:16:45;19.40;74.40
51811;DHT22;52468;40.116;18.296;2024-01-06T11:22:28;19.50;73.90
51811;DHT22;52468;40.116;18.296;2024-01-06T11:25:13;19.60;73.70
51811;DHT22;52468;40.116;18.296;2024-01-06T11:27:45;19.60;73.30
51811;DHT22;52468;40.116;18.296;2024-01-06T11:30:25;19.70;73.30
51811;DHT22;52468;40.116;18.296;2024-01-06T11:32:54;19.80;72.80
51811;DHT22;52468;40.116;18.296;2024-01-06T11:35:23;19.60;72.10
51811;DHT22;52468;40.116;18.296;2024-01-06T11:37:56;19.50;72.60
51811;DHT22;52468;40.116;18.296;2024-01-06T11:40:32;19.30;73.50
51811;DHT22;52468;40.116;18.296;2024-01-06T11:43:09;19.30;73.80
51811;DHT22;52468;40.116;18.296;2024-01-06T11:45:40;19.10;74.20
51811;DHT22;52468;40.116;18.296;2024-01-06T11:48:12;19.00;74.80
51811;DHT22;52468;40.116;18.296;2024-01-06T11:50:40;19.00;75.20
51811;DHT22;52468;40.116;18.296;2024-01-06T11:53:09;19.10;75.00
51811;DHT22;52468;40.116;18.296;2024-01-06T11:55:40;19.10;74.90
51811;DHT22;52468;40.116;18.296;2024-01-06T11:58:09;19.10;74.50
51811;DHT22;52468;40.116;18.296;2024-01-06T12:00:37;19.20;74.70
51811;DHT22;52468;40.116;18.296;2024-01-06T12:03:07;19.30;74.40
51811;DHT22;52468;40.116;18.296;2024-01-06T12:05:35;19.40;74.10
51811;DHT22;52468;40.116;18.296;2024-01-06T12:08:04;19.40;73.90
51811;DHT22;52468;40.116;18.296;2024-01-06T12:10:34;19.40;73.60
51811;DHT22;52468;40.116;18.296;2024-01-06T12:13:03;19.30;73.20
51811;DHT22;52468;40.116;18.296;2024-01-06T12:15:33;19.20;73.40
51811;DHT22;52468;40.116;18.296;2024-01-06T12:18:04;19.10;72.80
51811;DHT22;52468;40.116;18.296;2024-01-06T12:20:33;19.20;72.70
51811;DHT22;52468;40.116;18.296;2024-01-06T12:23:01;19.20;72.50
51811;DHT22;52468;40.116;18.296;2024-01-06T12:25:34;19.30;72.40
51811;DHT22;52468;40.116;18.296;2024-01-06T12:28:05;19.20;72.70
51811;DHT22;52468;40.116;18.296;2024-01-06T12:30:33;19.10;73.20
51811;DHT22;52468;40.116;18.296;2024-01-06T12:33:03;19.10;73.50
51811;DHT22;52468;40.116;18.296;2024-01-06T12:35:31;19.00;73.90
51811;DHT22;52468;40.116;18.296;2024-01-06T12:37:59;19.00;73.50
51811;DHT22;52468;40.116;18.296;2024-01-06T12:40:29;19.00;73.70
51811;DHT22;52468;40.116;18.296;2024-01-06T12:42:57;19.00;73.30
51811;DHT22;52468;40.116;18.296;2024-01-06T12:45:25;18.90;73.60
51811;DHT22;52468;40.116;18.296;2024-01-06T12:50:24;18.70;75.10
51811;DHT22;52468;40.116;18.296;2024-01-06T12:52:52;18.60;75.60
51811;DHT22;52468;40.116;18.296;2024-01-06T12:55:20;18.60;75.70
51811;DHT22;52468;40.116;18.296;2024-01-06T12:57:48;18.60;75.80
51811;DHT22;52468;40.116;18.296;2024-01-06T13:00:16;18.60;75.60
51811;DHT22;52468;40.116;18.296;2024-01-06T13:02:44;18.70;75.40
51811;DHT22;52468;40.116;18.296;2024-01-06T13:05:12;18.80;75.20
51811;DHT22;52468;40.116;18.296;2024-01-06T13:07:40;18.90;75.00
51811;DHT22;52468;40.116;18.296;2024-01-06T13:10:08;18.90;74.70
51811;DHT22;52468;40.116;18.296;2024-01-06T13:12:36;19.00;74.60
51811;DHT22;52468;40.116;18.296;2024-01-06T13:15:05;19.10;74.40
51811;DHT22;52468;40.116;18.296;2024-01-06T13:17:33;19.10;74.20
51811;DHT22;52468;40.116;18.296;2024-01-06T13:20:01;19.00;74.50
51811;DHT22;52468;40.116;18.296;2024-01-06T13:22:28;19.00;74.70
51811;DHT22;52468;40.116;18.296;2024-01-06T13:24:56;19.00;74.70
51811;DHT22;52468;40.116;18.296;2024-01-06T13:27:25;19.10;74.60
51811;DHT22;52468;40.116;18.296;2024-01-06T13:29:55;19.20;74.30
51811;DHT22;52468;40.116;18.296;2024-01-06T13:32:22;19.40;73.60
51811;DHT22;52468;40.116;18.296;2024-01-06T13:34:50;19.50;73.00
51811;DHT22;52468;40.116;18.296;2024-01-06T13:37:25;19.50;72.80
51811;DHT22;52468;40.116;18.296;2024-01-06T13:39:54;19.40;73.00
51811;DHT22;52468;40.116;18.296;2024-01-06T13:42:22;19.30;73.30
51811;DHT22;52468;40.116;18.296;2024-01-06T13:44:50;19.20;73.50
51811;DHT22;52468;40.116;18.296;2024-01-06T13:47:18;19.20;73.50
51811;DHT22;52468;40.116;18.296;2024-01-06T13:49:46;19.30;73.60
51811;DHT22;52468;40.116;18.296;2024-01-06T13:52:14;19.20;73.60
51811;DHT22;52468;40.116;18.296;2024-01-06T13:54:42;19.20;73.60
51811;DHT22;52468;40.116;18.296;2024-01-06T13:57:09;19.30;73.60
51811;DHT22;52468;40.116;18.296;2024-01-06T13:59:38;19.20;73.60
51811;DHT22;52468;40.116;18.296;2024-01-06T14:02:10;19.30;73.50
51811;DHT22;52468;40.116;18.296;2024-01-06T14:04:38;19.40;73.10
51811;DHT22;52468;40.116;18.296;2024-01-06T14:07:06;19.30;73.20
51811;DHT22;52468;40.116;18.296;2024-01-06T14:09:34;19.30;73.00
51811;DHT22;52468;40.116;18.296;2024-01-06T14:12:02;19.20;73.00
51811;DHT22;52468;40.116;18.296;2024-01-06T14:14:33;19.10;73.50
51811;DHT22;52468;40.116;18.296;2024-01-06T14:17:00;18.90;73.90
51811;DHT22;52468;40.116;18.296;2024-01-06T14:19:28;18.80;74.40
51811;DHT22;52468;40.116;18.296;2024-01-06T14:21:56;18.70;74.50
51811;DHT22;52468;40.116;18.296;2024-01-06T14:24:24;18.60;74.70
51811;DHT22;52468;40.116;18.296;2024-01-06T14:26:55;18.50;75.10
51811;DHT22;52468;40.116;18.296;2024-01-06T14:29:24;18.50;75.50
51811;DHT22;52468;40.116;18.296;2024-01-06T14:31:52;18.50;75.50
51811;DHT22;52468;40.116;18.296;2024-01-06T14:34:20;18.60;75.50
51811;DHT22;52468;40.116;18.296;2024-01-06T14:36:48;18.60;75.20
51811;DHT22;52468;40.116;18.296;2024-01-06T14:39:21;18.60;74.90
51811;DHT22;52468;40.116;18.296;2024-01-06T14:41:50;18.60;75.20
51811;DHT22;52468;40.116;18.296;2024-01-06T14:44:19;18.60;74.60
51811;DHT22;52468;40.116;18.296;2024-01-06T14:46:48;18.70;74.50
51811;DHT22;52468;40.116;18.296;2024-01-06T14:49:16;18.60;74.60
51811;DHT22;52468;40.116;18.296;2024-01-06T14:51:46;18.50;74.90
51811;DHT22;52468;40.116;18.296;2024-01-06T14:54:14;18.50;75.20
51811;DHT22;52468;40.116;18.296;2024-01-06T14:56:42;18.40;75.60
51811;DHT22;52468;40.116;18.296;2024-01-06T14:59:10;18.40;76.10
51811;DHT22;52468;40.116;18.296;2024-01-06T15:01:44;18.30;75.70
51811;DHT22;52468;40.116;18.296;2024-01-06T15:04:12;18.40;75.70
51811;DHT22;52468;40.116;18.296;2024-01-06T15:06:41;18.30;75.50
51811;DHT22;52468;40.116;18.296;2024-01-06T15:09:11;18.30;75.50
51811;DHT22;52468;40.116;18.296;2024-01-06T15:12:34;18.30;75.50
51811;DHT22;52468;40.116;18.296;2024-01-06T15:15:02;18.20;75.50
51811;DHT22;52468;40.116;18.296;2024-01-06T15:17:30;18.10;75.70
51811;DHT22;52468;40.116;18.296;2024-01-06T15:19:58;18.10;75.90
51811;DHT22;52468;40.116;18.296;2024-01-06T15:22:28;18.00;76.30
51811;DHT22;52468;40.116;18.296;2024-01-06T15:24:56;18.00;76.40
51811;DHT22;52468;40.116;18.296;2024-01-06T15:27:24;18.00;76.60
51811;DHT22;52468;40.116;18.296;2024-01-06T15:29:52;17.80;76.70
51811;DHT22;52468;40.116;18.296;2024-01-06T15:32:19;17.90;76.70